Aérodrome :
LOGIN :

S'inscrire | Disclaimer

   EN    FR    IT 

 










Légende :    VFR   VFR Marginal   IFR   IFR Intensif   IFR Très Intensif
Visi : 
Plafond : 
>= 8 km
>= 3000ft
5 à 8 km
1000 à 3000 ft
1500m à 5 km
500 à 1000 ft
800 à 1500m
200 à 500 ft
< 800m
< 200 ft
Symboles :   Orages  Brouillard  Fortes neiges  Fortes précipitations  Vent > 20 kt
SIGMETs :   Divers  Orages  Givrage  Turbulence  Onde Orograph.  Cendres Volcan.







- Altitude de l'aérodrome : 1367 ft
- Code IATA : FDH


EDNY - Friedrichshafen

DERNIER METAR :
  • 141020Z 20008KT 170V230 9999 FEW023 SCT058 22/15 Q1017

METARs EXPIRÉS :
  • 140950Z 23006KT 190V260 9999 SCT022 SCT065 21/15 Q1017
  • 140920Z 26004KT 230V320 9999 FEW016 SCT019 BKN054 20/16 Q1017
  • 140850Z 26004KT 210V310 9999 FEW012 SCT016 OVC056 19/16 Q1017
  • 140820Z VRB02KT 9999 FEW011 SCT018 OVC068 19/17 Q1017
  • 140750Z VRB02KT 9999 FEW008 BKN057 OVC073 19/16 Q1016

TAF TAF EDNY
Valide du 14 à 06h jusqu'au 15 à 06h UTC


140500Z 1406/1506 23005KT 9999 SCT040
TEMPO 1406/1408 23010KT SHRA BKN012 BKN040TCU
BECMG 1417/1419 VRB02KT
Pas de NOTAMs connus pour ce terrain.



MET'MAP, la Météo Aéronautique d'un coup d'oeil ! - Copyright ORBIFLY Décembre 2007 - Disclaimer

ORBIFLY MET'MAP TEAM :

Programmation & Développement : Alexandra Zaïnal
Conception & Développement : Baudouin d'Aumeries
Co-Programmation & Développement : Marc-Olivier Méhu
Soutien technique & logistique : Manuel Goepfert

Contact : metmap@orbifly.com




SOURCES & CREDITS :

   NOAA